Time;durP1;ratioP1;P1;durP2;ratioP2;P2;SDS_P1;SDS_P2;PMS_P1;PMS_P2;Temp;Humidity;BMP_temperature;BMP_pressure;BME280_temperature;BME280_humidity;BME280_pressure;Samples;Min_cycle;Max_cycle;Signal;HPM_P1;HPM_P2
2021/05/30 00:02:17;;;;;;;2.88;1.36;;;;;;;9.64;77.01;100126.97;2001963;78;21971;-78
2021/05/30 00:05:20;;;;;;;2.58;1.60;;;;;;;9.61;77.25;100123.47;2001554;81;20526;-77
2021/05/30 00:08:22;;;;;;;1.56;1.46;;;;;;;9.56;77.37;100119.97;2002359;81;20177;-78
2021/05/30 00:11:25;;;;;;;2.97;1.49;;;;;;;9.50;77.14;100125.94;2001079;81;20199;-78
2021/05/30 00:14:48;;;;;;;3.28;1.81;;;;;;;9.47;77.09;100120.72;2002029;80;20246;-79
2021/05/30 00:17:51;;;;;;;1.70;1.60;;;;;;;9.40;77.56;100126.69;2005270;78;22301;-78
2021/05/30 00:20:53;;;;;;;1.80;1.56;;;;;;;9.30;77.86;100117.06;2007476;80;20238;-78
2021/05/30 00:23:59;;;;;;;1.48;1.29;;;;;;;9.28;77.75;100121.34;2007010;80;20776;-79
2021/05/30 00:27:02;;;;;;;1.74;1.45;;;;;;;9.24;77.55;100120.44;2006384;80;20832;-78
2021/05/30 00:30:06;;;;;;;1.69;1.30;;;;;;;9.21;77.70;100124.72;2005510;80;20185;-78
2021/05/30 00:33:08;;;;;;;2.94;1.77;;;;;;;9.17;77.71;100118.66;2001453;78;20239;-78
2021/05/30 00:36:11;;;;;;;7.14;1.70;;;;;;;9.09;77.77;100115.94;2001615;81;20281;-78
2021/05/30 00:39:15;;;;;;;3.04;1.75;;;;;;;9.07;77.85;100119.38;2001629;81;20336;-78
2021/05/30 00:42:19;;;;;;;2.85;1.41;;;;;;;9.02;77.93;100113.25;2002351;81;20170;-78
2021/05/30 00:45:21;;;;;;;2.74;2.00;;;;;;;8.95;78.13;100117.47;2001204;78;23611;-77
2021/05/30 00:48:24;;;;;;;5.88;1.50;;;;;;;8.91;78.40;100109.63;2006237;80;20258;-78
2021/05/30 00:51:27;;;;;;;1.70;1.56;;;;;;;8.90;78.74;100115.66;2006697;80;20173;-78
2021/05/30 00:54:30;;;;;;;2.80;1.83;;;;;;;8.87;78.78;100113.91;2007015;80;20579;-78
2021/05/30 00:57:32;;;;;;;3.75;1.84;;;;;;;8.82;78.51;100114.72;2006620;80;20250;-78
2021/05/30 01:00:35;;;;;;;3.29;1.98;;;;;;;8.74;78.73;100112.00;2004781;78;21219;-78
2021/05/30 01:03:39;;;;;;;2.71;1.81;;;;;;;8.64;78.99;100111.00;2002211;80;20186;-78
2021/05/30 01:06:42;;;;;;;3.36;1.86;;;;;;;8.60;79.22;100113.50;2002339;81;20739;-79
2021/05/30 01:09:46;;;;;;;2.19;1.70;;;;;;;8.62;79.24;100110.09;2001869;81;20213;-79
2021/05/30 01:12:51;;;;;;;2.66;1.86;;;;;;;8.58;79.28;100110.88;2002232;81;20275;-79
2021/05/30 01:15:54;;;;;;;3.22;2.00;;;;;;;8.53;79.54;100114.25;2002032;78;22592;-78
2021/05/30 01:18:59;;;;;;;3.00;1.95;;;;;;;8.55;79.55;100115.16;2006757;80;20673;-78
2021/05/30 01:22:08;;;;;;;2.55;2.10;;;;;;;8.58;79.67;100120.38;2006442;80;20173;-78
2021/05/30 01:25:11;;;;;;;;;;;;;;;8.56;79.78;100117.75;2006525;80;20177;-78
2021/05/30 01:28:15;;;;;;;2.54;1.60;;;;;;;8.54;79.91;100119.47;2007526;80;20158;-78
2021/05/30 01:31:18;;;;;;;4.66;1.81;;;;;;;8.55;79.56;100122.91;2004351;78;20716;-79
2021/05/30 01:34:20;;;;;;;4.30;1.83;;;;;;;8.51;79.60;100126.31;2001513;81;20177;-79
2021/05/30 01:37:23;;;;;;;2.46;1.64;;;;;;;8.45;79.68;100121.91;2001471;81;20205;-78
2021/05/30 01:40:26;;;;;;;2.09;1.80;;;;;;;8.43;79.80;100127.03;2001327;81;20213;-79
2021/05/30 01:43:29;;;;;;;5.45;2.21;;;;;;;8.40;79.80;100129.59;2001916;81;20177;-80
2021/05/30 01:46:31;;;;;;;3.58;1.44;;;;;;;8.34;79.74;100129.50;2003271;78;20202;-79
2021/05/30 01:49:35;;;;;;;1.74;1.63;;;;;;;8.32;79.92;100130.28;2007114;80;20300;-78
2021/05/30 01:52:38;;;;;;;2.30;1.86;;;;;;;8.29;80.03;100128.53;2006446;80;20333;-79
2021/05/30 01:58:53;;;;;;;1.91;1.51;;;;;;;8.24;80.36;100126.69;2006941;80;20635;-79
2021/05/30 02:01:58;;;;;;;1.84;1.66;;;;;;;8.22;80.22;100129.25;2003191;80;20205;-79
2021/05/30 02:05:01;;;;;;;2.33;1.79;;;;;;;8.21;80.34;100121.47;2002757;80;20347;-79
2021/05/30 02:08:07;;;;;;;2.56;1.77;;;;;;;8.13;80.33;100134.28;2002810;81;20682;-79
2021/05/30 02:11:12;;;;;;;2.96;1.79;;;;;;;8.11;80.24;100123.91;2002835;81;20200;-78
2021/05/30 02:14:17;;;;;;;1.54;1.34;;;;;;;8.10;80.54;100129.06;2003399;80;21184;-78
2021/05/30 02:17:21;;;;;;;4.44;1.45;;;;;;;8.05;80.41;100130.69;2005539;78;25196;-78
2021/05/30 02:20:32;;;;;;;1.48;1.10;;;;;;;8.01;80.46;100124.59;2008144;80;20210;-78
2021/05/30 02:23:35;;;;;;;2.00;1.46;;;;;;;8.00;80.50;100130.59;2007972;80;20330;-79
2021/05/30 02:26:38;;;;;;;1.79;1.63;;;;;;;7.96;80.40;100123.66;2009242;80;20258;-80
2021/05/30 02:29:42;;;;;;;1.45;1.29;;;;;;;7.92;80.34;100120.97;2008075;80;20732;-79
2021/05/30 02:32:46;;;;;;;2.76;1.60;;;;;;;7.85;80.47;100120.84;2002440;78;20203;-78
2021/05/30 02:35:49;;;;;;;2.85;1.60;;;;;;;7.84;80.61;100116.53;1998781;81;20163;-80
2021/05/30 02:38:52;;;;;;;2.55;1.21;;;;;;;7.82;80.90;100125.09;1998876;81;20704;-79
2021/05/30 02:41:54;;;;;;;1.77;1.35;;;;;;;7.84;80.76;100120.81;1997847;81;20247;-79
2021/05/30 02:44:57;;;;;;;2.28;1.40;;;;;;;7.86;80.73;100119.13;1999053;81;20182;-79
2021/05/30 02:48:00;;;;;;;1.39;1.10;;;;;;;7.88;80.85;100125.19;2003205;78;21330;-78
2021/05/30 02:51:03;;;;;;;3.45;1.42;;;;;;;7.88;80.97;100126.06;2003288;81;20239;-80
2021/05/30 02:54:06;;;;;;;1.54;1.08;;;;;;;7.87;81.08;100128.63;2004339;80;20356;-80
2021/05/30 02:57:08;;;;;;;1.73;1.11;;;;;;;7.83;80.94;100129.44;2004367;81;20182;-79
2021/05/30 03:00:12;;;;;;;1.77;1.27;;;;;;;7.82;80.78;100131.13;2002849;81;20170;-79
2021/05/30 03:03:15;;;;;;;1.79;1.05;;;;;;;7.78;80.91;100133.66;1997287;78;22284;-79
2021/05/30 03:06:23;;;;;;;2.04;0.96;;;;;;;7.75;80.90;100124.13;1997769;81;20685;-78
2021/05/30 03:09:26;;;;;;;1.63;1.38;;;;;;;7.74;80.81;100126.69;1998209;81;20158;-79
2021/05/30 03:12:29;;;;;;;1.41;1.31;;;;;;;7.71;80.84;100130.06;1996357;81;20379;-79
2021/05/30 03:15:32;;;;;;;2.76;1.41;;;;;;;7.66;80.92;100125.66;1997631;81;20638;-79
2021/05/30 03:18:34;;;;;;;3.84;1.10;;;;;;;7.66;81.01;100129.09;2002001;81;20174;-79
2021/05/30 03:21:39;;;;;;;1.26;1.09;;;;;;;7.66;81.12;100129.09;2002061;81;20797;-80
2021/05/30 03:24:41;;;;;;;2.99;1.31;;;;;;;7.63;81.25;100134.22;2003496;80;20453;-80
2021/05/30 03:27:44;;;;;;;2.20;1.09;;;;;;;7.62;81.17;100135.06;2003602;81;20317;-80
2021/05/30 03:30:47;;;;;;;1.88;1.44;;;;;;;7.63;81.18;100133.34;2001762;78;20441;-79
2021/05/30 03:33:50;;;;;;;1.58;1.11;;;;;;;7.64;81.10;100146.31;2003732;80;20334;-80
2021/05/30 03:36:56;;;;;;;1.96;1.17;;;;;;;7.66;81.18;100146.31;2007019;80;20329;-79
2021/05/30 03:40:02;;;;;;;1.66;1.15;;;;;;;7.66;81.28;100146.31;2007692;80;20157;-80
2021/05/30 03:43:05;;;;;;;2.40;1.35;;;;;;;7.68;81.24;100145.50;2009635;80;20341;-79
2021/05/30 03:46:08;;;;;;;3.53;1.30;;;;;;;7.66;81.44;100141.16;2005332;78;21886;-79
2021/05/30 03:49:10;;;;;;;1.66;1.25;;;;;;;7.67;81.42;100140.31;2001914;81;20321;-79
2021/05/30 03:52:13;;;;;;;1.64;1.39;;;;;;;7.67;81.41;100141.19;2002710;81;20578;-79
2021/05/30 03:55:16;;;;;;;1.91;1.40;;;;;;;7.63;81.48;100133.34;2002821;80;20324;-80
2021/05/30 03:58:20;;;;;;;2.22;1.52;;;;;;;7.60;81.35;100136.75;2003463;81;20697;-78
2021/05/30 04:01:22;;;;;;;3.97;1.60;;;;;;;7.62;81.59;100135.06;2003680;78;23347;-80
2021/05/30 04:04:25;;;;;;;2.84;1.58;;;;;;;7.63;81.87;100131.63;2007466;80;20327;-80
2021/05/30 04:07:28;;;;;;;2.39;1.52;;;;;;;7.65;81.93;100127.38;2009063;80;20538;-79
2021/05/30 04:10:30;;;;;;;1.84;1.59;;;;;;;7.72;82.13;100126.66;2011030;80;20315;-80
2021/05/30 04:13:33;;;;;;;2.78;1.89;;;;;;;7.80;82.25;100119.91;2010436;80;20795;-81
2021/05/30 04:16:36;;;;;;;2.94;1.77;;;;;;;7.88;82.53;100126.06;2005009;78;20333;-80
2021/05/30 04:19:39;;;;;;;8.36;2.04;;;;;;;7.99;82.63;100121.09;2003050;81;20247;-81
2021/05/30 04:22:42;;;;;;;3.05;2.05;;;;;;;8.12;83.08;100128.25;2002948;80;20174;-80
2021/05/30 04:25:44;;;;;;;2.56;1.94;;;;;;;8.26;83.10;100125.91;2003409;81;20915;-80
2021/05/30 04:28:47;;;;;;;2.71;2.31;;;;;;;8.44;82.75;100125.34;2003489;81;20244;-80
2021/05/30 04:31:50;;;;;;;3.33;2.11;;;;;;;8.64;82.42;100125.66;2005766;78;20211;-80
2021/05/30 04:34:52;;;;;;;4.19;2.13;;;;;;;8.89;81.86;100124.28;2007246;80;20567;-80
2021/05/30 04:37:55;;;;;;;4.85;1.89;;;;;;;9.09;81.45;100128.03;2008304;80;20195;-81
2021/05/30 04:41:00;;;;;;;3.05;2.33;;;;;;;9.35;80.57;100123.19;2008408;80;20222;-80
2021/05/30 04:44:03;;;;;;;2.06;1.96;;;;;;;9.60;79.30;100121.75;2008472;80;20235;-81
2021/05/30 04:47:06;;;;;;;4.13;2.70;;;;;;;9.85;78.48;100118.53;2008648;77;22196;-80
2021/05/30 04:50:09;;;;;;;3.06;2.31;;;;;;;10.11;77.56;100120.53;2009840;80;20169;-80
2021/05/30 04:53:12;;;;;;;4.14;2.72;;;;;;;10.38;76.62;100125.97;2007672;80;20199;-80
2021/05/30 04:56:20;;;;;;;2.65;2.44;;;;;;;10.64;75.62;100122.72;2008788;80;20181;-80
2021/05/30 04:59:24;;;;;;;2.22;2.03;;;;;;;10.94;74.37;100117.72;2008662;80;20779;-80
2021/05/30 05:02:27;;;;;;;3.14;2.49;;;;;;;11.28;72.23;100121.34;2003414;78;24740;-80
2021/05/30 05:05:29;;;;;;;3.22;2.63;;;;;;;11.79;71.09;100130.25;2005039;80;20174;-79
2021/05/30 05:08:32;;;;;;;3.91;2.84;;;;;;;12.26;69.45;100119.03;2005048;81;20229;-80
2021/05/30 05:11:34;;;;;;;3.11;2.91;;;;;;;12.66;67.72;100120.75;2011275;81;20189;-82
2021/05/30 05:14:37;;;;;;;3.83;2.90;;;;;;;12.92;65.76;100125.91;2007042;81;20678;-80
2021/05/30 05:17:40;;;;;;;3.49;2.24;;;;;;;13.27;64.50;100123.25;2008272;78;21228;-80
2021/05/30 05:20:43;;;;;;;2.71;2.51;;;;;;;13.47;63.47;100122.31;2004833;81;20271;-79
2021/05/30 05:23:46;;;;;;;3.36;2.20;;;;;;;13.61;62.57;100133.53;2003477;80;20252;-81
2021/05/30 05:26:48;;;;;;;3.04;2.25;;;;;;;13.76;62.00;100129.97;2003756;81;20193;-80
2021/05/30 05:29:51;;;;;;;3.63;2.81;;;;;;;14.03;61.15;100132.44;2004184;81;20187;-81
2021/05/30 05:32:54;;;;;;;2.86;2.39;;;;;;;14.48;59.95;100130.38;2001135;78;40174;-79
2021/05/30 05:35:57;;;;;;;2.65;2.39;;;;;;;15.04;58.18;100131.59;2001625;81;20178;-78
2021/05/30 05:38:59;;;;;;;3.60;2.29;;;;;;;15.34;56.58;100130.38;2001732;81;21006;-78
2021/05/30 05:42:02;;;;;;;3.09;2.79;;;;;;;15.72;55.35;100132.56;2001905;81;20181;-79
2021/05/30 05:45:05;;;;;;;2.56;2.38;;;;;;;16.02;54.36;100134.75;2001272;80;20235;-79
2021/05/30 05:48:15;;;;;;;3.88;2.35;;;;;;;16.19;53.88;100138.88;2006369;78;20865;-79
2021/05/30 05:51:18;;;;;;;3.31;2.53;;;;;;;16.12;53.18;100143.31;2007726;80;20335;-78
2021/05/30 05:54:21;;;;;;;3.42;1.99;;;;;;;16.42;53.03;100135.88;2007069;80;20180;-80
2021/05/30 05:57:23;;;;;;;3.20;2.05;;;;;;;16.57;52.08;100135.63;2008039;80;20743;-79
2021/05/30 06:00:27;;;;;;;3.80;2.10;;;;;;;16.82;51.34;100138.72;2006402;78;20932;-79
2021/05/30 06:03:29;;;;;;;2.69;1.98;;;;;;;17.19;50.22;100141.53;2003490;81;20199;-79
2021/05/30 06:06:32;;;;;;;3.67;2.59;;;;;;;17.53;48.50;100133.84;2006573;81;20190;-80
2021/05/30 06:09:35;;;;;;;8.35;2.74;;;;;;;17.72;47.96;100137.84;2004532;81;20372;-80
2021/05/30 06:12:38;;;;;;;3.06;2.15;;;;;;;18.08;47.14;100141.41;2002648;81;20217;-80
2021/05/30 06:15:41;;;;;;;2.30;1.95;;;;;;;18.13;46.86;100151.81;1999363;77;20193;-79
2021/05/30 06:18:45;;;;;;;2.92;1.92;;;;;;;18.37;45.98;100146.00;2011418;80;20165;-80
2021/05/30 06:21:48;;;;;;;4.13;2.01;;;;;;;18.54;45.85;100139.47;2009619;80;20229;-80
2021/05/30 06:24:50;;;;;;;4.68;1.66;;;;;;;18.82;44.75;100137.88;2014645;80;20238;-82
2021/05/30 06:27:57;;;;;;;1.66;1.46;;;;;;;18.92;44.88;100151.66;2021371;80;20206;-83
2021/05/30 06:31:00;;;;;;;2.55;1.58;;;;;;;18.85;43.66;100140.44;2014762;78;21514;-82
2021/05/30 06:34:04;;;;;;;1.98;1.50;;;;;;;18.89;43.82;100142.09;2010576;81;20609;-80
2021/05/30 06:37:07;;;;;;;2.01;1.79;;;;;;;19.08;43.26;100150.34;2008079;81;20203;-81
2021/05/30 06:40:10;;;;;;;1.80;1.70;;;;;;;19.27;43.38;100148.94;2010580;81;20192;-83
2021/05/30 06:43:12;;;;;;;1.95;1.67;;;;;;;19.43;42.93;100152.00;2015199;80;20175;-83
2021/05/30 06:46:15;;;;;;;1.92;1.79;;;;;;;19.66;42.45;100154.00;2013523;81;20204;-82
2021/05/30 06:49:18;;;;;;;1.99;1.51;;;;;;;19.83;42.21;100151.75;2013385;80;20230;-83
2021/05/30 06:52:21;;;;;;;4.43;1.50;;;;;;;19.91;41.74;100157.63;2018173;81;20170;-84
2021/05/30 06:55:23;;;;;;;2.95;1.50;;;;;;;20.11;41.58;100156.19;2015705;80;20173;-82
2021/05/30 06:58:26;;;;;;;1.66;1.56;;;;;;;20.18;41.29;100162.97;2017350;81;20138;-82
2021/05/30 07:01:29;;;;;;;2.47;1.88;;;;;;;20.32;40.84;100167.81;2015019;81;20177;-81
2021/05/30 07:04:32;;;;;;;3.35;1.45;;;;;;;20.06;39.82;100166.84;2015338;80;20174;-81
2021/05/30 07:07:35;;;;;;;1.94;1.59;;;;;;;20.51;40.17;100161.06;2009723;81;20203;-81
2021/05/30 07:10:38;;;;;;;2.21;1.39;;;;;;;20.61;39.85;100167.75;2013655;81;20186;-83
2021/05/30 07:13:40;;;;;;;1.40;1.30;;;;;;;20.79;39.69;100161.88;2012932;80;20181;-86
2021/05/30 07:16:43;;;;;;;1.49;1.39;;;;;;;20.75;39.19;100162.03;2014786;81;20295;-83
2021/05/30 07:19:48;;;;;;;1.56;1.46;;;;;;;20.79;38.69;100163.63;2017534;81;20256;-81
2021/05/30 07:22:51;;;;;;;1.25;1.17;;;;;;;20.61;39.91;100159.84;2014504;81;20292;-82
2021/05/30 07:25:55;;;;;;;2.74;1.33;;;;;;;20.42;40.34;100167.50;2017261;81;20182;-82
2021/05/30 07:28:57;;;;;;;1.25;1.15;;;;;;;20.58;39.67;100162.59;2014355;81;20245;-83
2021/05/30 07:32:00;;;;;;;1.08;1.08;;;;;;;20.58;39.45;100156.44;2014475;78;55121;-82
2021/05/30 07:35:04;;;;;;;4.65;1.40;;;;;;;20.81;39.31;100159.16;2016250;80;20197;-81
2021/05/30 07:38:07;;;;;;;1.55;1.40;;;;;;;21.14;38.78;100162.41;2016910;81;20226;-85
2021/05/30 07:41:10;;;;;;;3.51;1.20;;;;;;;21.35;37.94;100150.25;2015841;80;20202;-86
2021/05/30 07:44:13;;;;;;;1.61;1.20;;;;;;;21.56;37.76;100164.50;2015437;80;20170;-84
2021/05/30 07:47:18;;;;;;;1.36;1.26;;;;;;;21.55;37.59;100165.41;2017078;78;46508;-82
2021/05/30 07:50:22;;;;;;;1.30;1.20;;;;;;;21.46;37.38;100161.31;2019563;80;20200;-80
2021/05/30 07:53:24;;;;;;;2.47;1.13;;;;;;;21.47;36.90;100163.03;2022912;80;20134;-86
2021/05/30 07:56:27;;;;;;;2.05;1.21;;;;;;;21.36;38.10;100149.34;2017857;80;20173;-85
2021/05/30 07:59:30;;;;;;;2.08;1.30;;;;;;;21.35;38.29;100156.41;2022461;80;20166;-82
2021/05/30 08:02:32;;;;;;;3.61;1.21;;;;;;;21.55;37.99;100162.75;2013583;78;20201;-82
2021/05/30 08:05:36;;;;;;;2.01;1.20;;;;;;;21.62;38.11;100154.53;2015843;80;20150;-85
2021/05/30 08:08:39;;;;;;;1.14;1.04;;;;;;;21.84;37.29;100156.34;2019133;81;20155;-83
2021/05/30 08:11:42;;;;;;;1.00;1.00;;;;;;;21.88;36.99;100164.09;2013407;81;20228;-83
2021/05/30 08:14:45;;;;;;;2.63;1.48;;;;;;;21.96;36.83;100172.63;2013084;80;20267;-82
2021/05/30 08:17:51;;;;;;;1.61;1.40;;;;;;;21.83;36.87;100171.38;2012553;78;20186;-80
2021/05/30 08:20:54;;;;;;;1.31;1.20;;;;;;;21.74;36.92;100178.78;2014136;81;20174;-83
2021/05/30 08:23:56;;;;;;;2.55;1.00;;;;;;;21.94;36.66;100170.97;2015076;80;20174;-82
2021/05/30 08:26:59;;;;;;;2.28;1.00;;;;;;;21.90;36.33;100170.22;2016223;81;20179;-82
2021/05/30 08:30:07;;;;;;;1.44;1.10;;;;;;;22.05;36.92;100170.56;2015076;81;20170;-85
2021/05/30 08:33:10;;;;;;;1.86;1.20;;;;;;;22.21;36.33;100167.25;2017523;80;20323;-83
2021/05/30 08:36:12;;;;;;;3.54;1.00;;;;;;;22.38;36.24;100163.06;2020084;81;20170;-85
2021/05/30 08:39:15;;;;;;;1.19;1.09;;;;;;;22.44;36.37;100160.16;2017571;81;20173;-85
2021/05/30 08:42:19;;;;;;;1.26;1.16;;;;;;;22.58;35.82;100163.13;2017214;81;20130;-84
2021/05/30 08:45:23;;;;;;;2.72;1.60;;;;;;;22.62;35.43;100148.81;2024036;80;20200;-84
2021/05/30 08:48:26;;;;;;;2.35;1.75;;;;;;;22.69;35.99;100152.97;2015858;81;20139;-85
2021/05/30 08:51:29;;;;;;;4.45;1.21;;;;;;;22.75;35.94;100154.47;2019798;81;20161;-85
2021/05/30 08:54:32;;;;;;;1.30;1.00;;;;;;;22.89;35.62;100153.00;2019055;80;20275;-84
2021/05/30 08:57:35;;;;;;;2.05;0.93;;;;;;;22.95;34.90;100151.00;2017947;81;20157;-84
2021/05/30 09:00:37;;;;;;;1.16;0.80;;;;;;;23.00;33.91;100143.75;2023214;80;20174;-84
2021/05/30 09:07:11;;;;;;;6.40;4.81;;;;;;;22.80;33.43;100145.44;2051101;70;20181;-83
2021/05/30 09:10:18;;;;;;;7.16;4.11;;;;;;;22.89;34.11;100145.06;2023163;80;20266;-85
2021/05/30 09:14:00;;;;;;;2.58;1.56;;;;;;;23.05;34.65;100152.34;2025218;70;20209;-80
2021/05/30 09:17:07;;;;;;;1.40;0.91;;;;;;;23.29;34.46;100153.91;2021001;78;103569;-84
2021/05/30 09:20:11;;;;;;;1.08;0.90;;;;;;;23.27;33.67;100150.47;2017894;80;20165;-84
2021/05/30 09:23:28;;;;;;;1.15;0.90;;;;;;;23.24;33.33;100150.59;2020916;80;20197;-71
2021/05/30 09:26:31;;;;;;;1.11;0.60;;;;;;;23.03;33.65;100154.22;2006044;80;20206;-71
2021/05/30 09:29:33;;;;;;;3.96;1.10;;;;;;;23.15;33.59;100153.66;2007342;80;20176;-70
2021/05/30 09:32:52;;;;;;;4.28;0.90;;;;;;;22.85;32.99;100151.41;2006041;78;21042;-70
2021/05/30 09:35:57;;;;;;;1.42;0.85;;;;;;;22.73;33.19;100161.63;2006920;80;20189;-71
2021/05/30 09:39:04;;;;;;;2.11;0.88;;;;;;;22.42;33.70;100154.09;2006859;80;20196;-71
2021/05/30 09:42:26;;;;;;;4.30;1.22;;;;;;;22.09;35.13;100159.84;2006971;80;20986;-70
2021/05/30 09:45:29;;;;;;;1.41;0.86;;;;;;;22.54;34.94;100145.66;2009596;79;20289;-82
2021/05/30 09:48:33;;;;;;;1.71;0.49;;;;;;;22.94;33.52;100146.66;2007116;81;20170;-70
2021/05/30 09:51:40;;;;;;;0.80;0.79;;;;;;;23.33;32.12;100141.38;1999795;81;20337;-71
2021/05/30 09:54:43;;;;;;;1.09;0.46;;;;;;;23.58;31.89;100130.56;2001250;81;20205;-71
2021/05/30 09:58:15;;;;;;;1.39;0.49;;;;;;;23.65;31.70;100129.34;2001657;81;20228;-71
2021/05/30 10:01:18;;;;;;;0.66;0.39;;;;;;;23.92;29.78;100143.13;2010292;81;20170;-83
2021/05/30 10:04:28;;;;;;;0.54;0.50;;;;;;;24.08;28.93;100142.31;2012987;80;20190;-80
2021/05/30 10:07:31;;;;;;;2.85;0.41;;;;;;;24.30;27.77;100139.53;2011785;81;20173;-83
2021/05/30 10:10:34;;;;;;;0.61;0.47;;;;;;;23.99;28.43;100134.78;2014707;81;20199;-83
2021/05/30 10:13:36;;;;;;;0.49;0.47;;;;;;;24.04;28.34;100130.13;2012009;80;20195;-83
2021/05/30 10:16:40;;;;;;;0.70;0.35;;;;;;;24.11;27.71;100125.41;2008785;81;20195;-81
2021/05/30 10:19:45;;;;;;;3.78;0.46;;;;;;;23.99;27.02;100115.34;2004734;81;20279;-78
2021/05/30 10:22:51;;;;;;;0.99;0.60;;;;;;;24.07;27.45;100137.09;2007830;80;20174;-84
2021/05/30 10:29:17;;;;;;;0.53;0.48;;;;;;;24.17;26.87;100122.44;2037539;70;20284;-83
2021/05/30 10:32:20;;;;;;;0.60;0.34;;;;;;;24.49;25.99;100126.19;2005282;78;25057;-72
2021/05/30 10:35:25;;;;;;;1.23;0.49;;;;;;;24.58;25.27;100120.41;2011452;80;20244;-71
2021/05/30 10:38:44;;;;;;;0.57;0.40;;;;;;;24.66;24.42;100115.59;2011619;80;20189;-71
2021/05/30 10:42:09;;;;;;;0.76;0.40;;;;;;;24.50;25.49;100111.97;2011594;80;20189;-71
2021/05/30 10:45:15;;;;;;;0.54;0.50;;;;;;;24.47;24.82;100109.47;2011421;80;20169;-70
2021/05/30 10:48:19;;;;;;;1.74;0.40;;;;;;;24.29;24.73;100102.44;2011487;78;20900;-71
2021/05/30 10:54:32;;;;;;;1.90;0.49;;;;;;;24.41;25.61;100099.16;2012178;80;21063;-71
2021/05/30 10:57:43;;;;;;;0.99;0.50;;;;;;;24.72;26.03;100106.44;2011879;80;20192;-72
2021/05/30 11:00:51;;;;;;;0.85;0.41;;;;;;;24.81;24.51;100102.47;2010289;78;21683;-71
2021/05/30 11:03:54;;;;;;;0.40;0.40;;;;;;;24.57;24.78;100085.97;2011662;80;20184;-71
2021/05/30 11:07:15;;;;;;;2.55;0.50;;;;;;;24.89;25.13;100076.34;2013188;80;20192;-71
2021/05/30 11:10:19;;;;;;;1.26;0.40;;;;;;;24.97;24.12;100074.16;2012642;80;20169;-72
2021/05/30 11:13:21;;;;;;;0.82;0.50;;;;;;;24.97;24.31;100071.50;2012484;80;20190;-72
2021/05/30 11:16:32;;;;;;;0.86;0.40;;;;;;;25.00;24.94;100069.56;2011580;78;20748;-71
2021/05/30 11:19:35;;;;;;;1.51;0.50;;;;;;;25.15;24.62;100062.59;2011924;80;20172;-73
2021/05/30 11:22:54;;;;;;;0.82;0.50;;;;;;;25.10;25.00;100067.25;2012845;80;20667;-71
2021/05/30 11:25:56;;;;;;;2.29;0.50;;;;;;;25.22;23.62;100063.09;2012561;80;20246;-72
2021/05/30 11:28:59;;;;;;;0.50;0.50;;;;;;;25.37;24.57;100070.25;2012815;80;20257;-70
2021/05/30 11:32:03;;;;;;;1.35;0.50;;;;;;;25.22;23.75;100068.41;2011452;78;20344;-71
2021/05/30 11:35:06;;;;;;;1.14;0.50;;;;;;;25.25;24.46;100039.84;2012890;80;20180;-71
2021/05/30 11:38:09;;;;;;;1.17;0.60;;;;;;;25.25;23.51;100058.47;2012590;80;20599;-70
2021/05/30 11:41:17;;;;;;;1.90;0.70;;;;;;;25.25;24.34;100060.25;2012054;80;20188;-70
2021/05/30 11:44:21;;;;;;;0.51;0.51;;;;;;;25.24;23.81;100063.88;2012880;80;20190;-70
2021/05/30 11:47:24;;;;;;;0.51;0.50;;;;;;;25.33;24.02;100044.78;2008219;78;20229;-70
2021/05/30 11:50:32;;;;;;;1.35;0.60;;;;;;;25.55;24.62;100044.44;2007951;80;20203;-70
2021/05/30 11:53:35;;;;;;;1.39;0.49;;;;;;;25.85;23.92;100042.75;2007210;80;20222;-71
2021/05/30 11:56:43;;;;;;;3.04;0.41;;;;;;;25.72;24.22;100036.41;2007363;80;20161;-70
2021/05/30 11:59:54;;;;;;;1.63;0.55;;;;;;;25.96;24.51;100043.94;2007065;80;20204;-70
2021/05/30 12:02:57;;;;;;;1.84;0.57;;;;;;;25.91;24.10;100049.53;2012438;78;20964;-71
2021/05/30 12:06:02;;;;;;;1.98;0.70;;;;;;;25.90;23.15;100043.34;2012510;80;20184;-72
2021/05/30 12:09:05;;;;;;;1.23;0.56;;;;;;;25.84;23.82;100046.34;2012474;80;20514;-71
2021/05/30 12:12:30;;;;;;;0.79;0.47;;;;;;;25.93;23.14;100041.44;2011819;80;20200;-81
2021/05/30 12:15:33;;;;;;;1.24;0.70;;;;;;;25.87;22.33;100024.03;2011201;78;20481;-81
2021/05/30 12:18:48;;;;;;;1.63;0.70;;;;;;;25.92;22.83;100023.78;2008668;80;20350;-81
2021/05/30 12:21:51;;;;;;;2.60;0.64;;;;;;;26.09;21.86;100037.81;2008273;80;20188;-78
2021/05/30 12:24:54;;;;;;;0.93;0.55;;;;;;;26.07;21.51;100020.22;2008499;80;20210;-82
2021/05/30 12:27:57;;;;;;;1.05;0.80;;;;;;;26.04;22.78;100018.59;2009030;80;20985;-82
2021/05/30 12:31:05;;;;;;;0.54;0.54;;;;;;;26.06;23.34;100007.88;2009263;78;30648;-81
2021/05/30 12:34:09;;;;;;;;;;;;;;;26.11;23.59;100011.09;2013506;80;20666;-82
2021/05/30 12:37:12;;;;;;;1.63;0.75;;;;;;;26.09;24.13;100007.69;2011831;80;20587;-77
2021/05/30 12:40:15;;;;;;;0.64;0.59;;;;;;;26.04;23.83;100017.75;2012658;80;20971;-79
2021/05/30 12:43:35;;;;;;;6.13;1.05;;;;;;;25.90;23.51;100005.22;2015512;80;20205;-81
2021/05/30 12:46:55;;;;;;;1.50;0.90;;;;;;;25.85;25.22;100004.63;2008808;78;22043;-78
2021/05/30 12:50:03;;;;;;;1.70;0.80;;;;;;;25.99;24.79;99991.38;2007164;80;20189;-78
2021/05/30 12:53:07;;;;;;;2.60;0.81;;;;;;;26.10;24.26;99994.28;2007451;80;20222;-80
2021/05/30 12:56:24;;;;;;;5.63;1.08;;;;;;;26.08;25.02;99988.19;2008127;80;20258;-79
2021/05/30 12:59:28;;;;;;;0.96;0.74;;;;;;;26.17;24.35;100000.09;2007934;80;20185;-70
2021/05/30 13:02:31;;;;;;;1.67;0.66;;;;;;;26.11;23.94;99992.47;2010213;78;61199;-71
2021/05/30 13:05:38;;;;;;;2.01;0.63;;;;;;;25.55;23.92;99984.13;2012619;80;20665;-72
2021/05/30 13:08:53;;;;;;;3.69;0.80;;;;;;;25.44;24.55;99972.38;2012564;80;20282;-72
2021/05/30 13:11:55;;;;;;;3.84;1.20;;;;;;;25.54;24.10;99970.91;2012144;80;20257;-71
2021/05/30 13:15:21;;;;;;;9.51;1.91;;;;;;;25.58;25.04;99981.28;2012207;80;20205;-70
2021/05/30 13:18:23;;;;;;;4.11;0.90;;;;;;;25.48;24.29;99984.53;2006836;80;20178;-74
2021/05/30 13:21:28;;;;;;;3.08;0.60;;;;;;;25.47;24.66;99977.50;2007429;80;20635;-71
2021/05/30 13:24:39;;;;;;;4.25;0.82;;;;;;;25.49;24.73;99973.81;2007285;80;20304;-72
2021/05/30 13:27:41;;;;;;;2.47;1.14;;;;;;;25.54;24.62;99973.56;2006455;80;20238;-71
2021/05/30 13:30:46;;;;;;;3.15;1.30;;;;;;;25.67;25.51;99977.22;2007829;78;20382;-71
2021/05/30 13:34:09;;;;;;;4.24;1.24;;;;;;;25.64;24.35;99966.78;2012554;80;20168;-72
2021/05/30 13:37:12;;;;;;;2.24;0.90;;;;;;;25.47;25.67;99962.41;2012072;80;20598;-71
2021/05/30 13:40:15;;;;;;;2.75;1.13;;;;;;;25.55;25.43;99960.19;2011748;80;20785;-71
2021/05/30 13:43:18;;;;;;;2.69;1.23;;;;;;;25.55;26.11;99946.88;2011880;80;20351;-69
2021/05/30 13:46:21;;;;;;;9.05;2.49;;;;;;;25.73;26.06;99949.47;2010857;79;20389;-70
2021/05/30 13:49:25;;;;;;;17.69;2.19;;;;;;;25.45;25.63;99963.44;2012121;80;20624;-70
2021/05/30 13:52:28;;;;;;;5.96;1.66;;;;;;;25.47;26.00;99954.44;2011836;80;20974;-74
2021/05/30 13:55:31;;;;;;;2.50;1.70;;;;;;;25.55;25.81;99946.88;2011634;80;20180;-74
2021/05/30 13:58:34;;;;;;;5.15;0.95;;;;;;;25.56;26.24;99943.28;2012118;80;20176;-74
2021/05/30 14:01:37;;;;;;;3.31;1.31;;;;;;;25.66;25.43;99948.91;2007476;78;21260;-73
2021/05/30 14:04:40;;;;;;;7.14;0.96;;;;;;;25.57;25.12;99963.63;2006542;80;20202;-71
2021/05/30 14:07:43;;;;;;;4.43;0.88;;;;;;;25.49;24.85;99944.56;2005666;80;20203;-71
2021/05/30 14:10:46;;;;;;;0.69;0.60;;;;;;;25.45;24.97;99947.50;2007140;80;20198;-71
2021/05/30 14:13:48;;;;;;;7.09;1.44;;;;;;;25.44;25.16;99935.13;2007765;80;20184;-71
2021/05/30 14:16:51;;;;;;;4.06;1.04;;;;;;;25.52;26.85;99935.56;2005602;78;111986;-77
2021/05/30 14:20:00;;;;;;;4.74;0.91;;;;;;;25.53;26.11;99937.28;2007774;80;20191;-76
2021/05/30 14:23:03;;;;;;;10.56;1.20;;;;;;;25.58;25.66;99941.38;2011355;80;20191;-76
2021/05/30 14:26:06;;;;;;;2.92;1.16;;;;;;;25.35;26.87;99928.56;2007986;80;20169;-81
2021/05/30 14:29:09;;;;;;;1.66;0.90;;;;;;;25.15;27.85;99921.72;2009646;80;20890;-71
2021/05/30 14:32:12;;;;;;;3.74;0.79;;;;;;;25.02;29.39;99923.31;2009530;78;20240;-71
2021/05/30 14:35:15;;;;;;;0.93;0.68;;;;;;;25.00;28.60;99925.22;2012986;80;20165;-74
2021/05/30 14:38:18;;;;;;;3.63;0.80;;;;;;;25.01;27.79;99924.25;2012970;80;20237;-72